createdAt,value
2023-03-14T00:01:18.767Z,7.70
2023-03-14T00:03:45.697Z,7.70
2023-03-14T00:06:13.926Z,7.70
2023-03-14T00:08:43.823Z,7.70
2023-03-14T00:11:17.848Z,7.70
2023-03-14T00:13:48.021Z,7.70
2023-03-14T00:16:14.971Z,7.70
2023-03-14T00:18:42.193Z,7.70
2023-03-14T00:21:11.699Z,7.70
2023-03-14T00:23:42.244Z,7.70
2023-03-14T00:26:18.016Z,7.70
2023-03-14T00:28:46.050Z,7.80
2023-03-14T00:31:17.097Z,7.80
2023-03-14T00:33:45.823Z,7.80
2023-03-14T00:36:17.943Z,7.80
2023-03-14T00:38:49.265Z,7.80
2023-03-14T00:41:23.192Z,7.80
2023-03-14T00:43:52.134Z,7.80
2023-03-14T00:46:19.228Z,7.90
2023-03-14T00:48:47.832Z,7.90
2023-03-14T00:51:16.169Z,7.90
2023-03-14T00:53:43.659Z,7.90
2023-03-14T00:56:13.804Z,7.90
2023-03-14T00:58:41.205Z,7.80
2023-03-14T01:01:17.851Z,7.90
2023-03-14T01:03:45.295Z,7.90
2023-03-14T01:06:20.342Z,7.80
2023-03-14T01:08:48.587Z,7.80
2023-03-14T01:11:27.193Z,7.80
2023-03-14T01:13:55.621Z,7.80
2023-03-14T01:16:27.825Z,7.90
2023-03-14T01:18:55.258Z,7.90
2023-03-14T01:21:31.293Z,7.90
2023-03-14T01:24:01.537Z,7.90
2023-03-14T01:26:33.150Z,7.90
2023-03-14T01:29:00.724Z,7.90
2023-03-14T01:31:28.731Z,7.90
2023-03-14T01:33:56.236Z,7.90
2023-03-14T01:36:23.194Z,7.90
2023-03-14T01:38:50.100Z,7.90
2023-03-14T01:41:27.750Z,7.90
2023-03-14T01:43:55.265Z,7.80
2023-03-14T01:46:29.041Z,7.80
2023-03-14T01:49:24.722Z,7.80
2023-03-14T01:52:10.745Z,7.80
2023-03-14T01:54:48.929Z,7.80
2023-03-14T01:57:29.282Z,7.80
2023-03-14T02:00:12.579Z,7.80
2023-03-14T02:02:46.335Z,7.80
2023-03-14T02:05:20.044Z,7.80
2023-03-14T02:07:58.959Z,7.80
2023-03-14T02:10:34.646Z,7.80
2023-03-14T02:13:06.646Z,7.80
2023-03-14T02:15:35.070Z,7.80
2023-03-14T02:18:05.129Z,7.80
2023-03-14T02:21:08.264Z,7.90
2023-03-14T02:24:32.923Z,7.90
2023-03-14T02:27:16.287Z,7.90
2023-03-14T02:30:10.827Z,7.80
2023-03-14T02:32:44.522Z,7.80
2023-03-14T02:35:21.779Z,7.80
2023-03-14T02:38:38.783Z,7.70
2023-03-14T02:41:06.461Z,7.70
2023-03-14T02:43:33.968Z,7.70
2023-03-14T02:46:05.418Z,7.80
2023-03-14T02:48:46.095Z,7.70
2023-03-14T02:51:15.668Z,7.80
2023-03-14T02:53:43.616Z,7.70
2023-03-14T02:56:11.658Z,7.70
2023-03-14T02:58:39.920Z,7.70
2023-03-14T03:01:07.402Z,7.70
2023-03-14T03:03:34.692Z,7.70
2023-03-14T03:06:01.817Z,7.70
2023-03-14T03:08:30.162Z,7.70
2023-03-14T03:10:59.012Z,7.70
2023-03-14T03:13:27.514Z,7.70
2023-03-14T03:15:54.864Z,7.70
2023-03-14T03:18:22.201Z,7.70
2023-03-14T03:20:49.217Z,7.70
2023-03-14T03:23:16.455Z,7.70
2023-03-14T03:25:48.312Z,7.70
2023-03-14T03:28:15.182Z,7.70
2023-03-14T03:30:43.918Z,7.70
2023-03-14T03:33:11.721Z,7.80
2023-03-14T03:35:49.650Z,7.80
2023-03-14T03:38:17.471Z,7.80
2023-03-14T03:40:45.738Z,7.80
2023-03-14T03:43:12.650Z,7.80
2023-03-14T03:45:39.540Z,7.80
2023-03-14T03:48:06.806Z,7.80
2023-03-14T03:50:33.660Z,7.80
2023-03-14T03:53:01.039Z,7.70
2023-03-14T03:55:29.002Z,7.70
2023-03-14T03:57:55.975Z,7.60
2023-03-14T04:00:23.075Z,7.60
2023-03-14T04:02:50.046Z,7.60
2023-03-14T04:05:17.269Z,7.50
2023-03-14T04:07:44.177Z,7.50
2023-03-14T04:10:11.537Z,7.50
2023-03-14T04:12:38.421Z,7.50
2023-03-14T04:15:06.271Z,7.50
2023-03-14T04:17:33.128Z,7.40
2023-03-14T04:20:00.006Z,7.40
2023-03-14T04:22:26.899Z,7.40
2023-03-14T04:24:53.791Z,7.30
2023-03-14T04:27:20.816Z,7.30
2023-03-14T04:29:47.716Z,7.30
2023-03-14T04:32:14.591Z,7.30
2023-03-14T04:34:42.287Z,7.20
2023-03-14T04:37:09.198Z,7.20
2023-03-14T04:39:36.042Z,7.20
2023-03-14T04:42:03.055Z,7.20
2023-03-14T04:44:29.916Z,7.20
2023-03-14T04:46:56.950Z,7.20
2023-03-14T04:49:24.018Z,7.20
2023-03-14T04:51:52.036Z,7.20
2023-03-14T04:54:19.418Z,7.20
2023-03-14T04:56:46.284Z,7.20
2023-03-14T04:59:13.171Z,7.20
2023-03-14T05:01:40.073Z,7.20
2023-03-14T05:04:06.976Z,7.20
2023-03-14T05:06:33.912Z,7.20
2023-03-14T05:09:01.003Z,7.20
2023-03-14T05:11:27.921Z,7.20
2023-03-14T05:13:54.810Z,7.20
2023-03-14T05:16:21.725Z,7.20
2023-03-14T05:18:48.564Z,7.10
2023-03-14T05:21:15.519Z,7.10
2023-03-14T05:23:42.378Z,7.10
2023-03-14T05:26:09.345Z,7.10
2023-03-14T05:28:36.262Z,7.10
2023-03-14T05:31:08.978Z,7.10
2023-03-14T05:33:35.846Z,7.10
2023-03-14T05:36:02.786Z,7.10
2023-03-14T05:38:29.640Z,7.10
2023-03-14T05:40:56.504Z,7.00
2023-03-14T05:43:23.364Z,7.00
2023-03-14T05:45:50.296Z,7.00
2023-03-14T05:48:17.772Z,7.00
2023-03-14T05:50:45.148Z,7.10
2023-03-14T05:53:12.042Z,7.10
2023-03-14T05:55:40.140Z,7.10
2023-03-14T05:58:07.589Z,7.10
2023-03-14T06:00:34.471Z,7.10
2023-03-14T06:03:01.343Z,7.10
2023-03-14T06:05:28.204Z,7.10
2023-03-14T06:07:55.046Z,7.10
2023-03-14T06:10:21.911Z,7.10
2023-03-14T06:12:49.367Z,7.10
2023-03-14T06:15:16.230Z,7.20
2023-03-14T06:17:43.109Z,7.20
2023-03-14T06:20:11.917Z,7.20
2023-03-14T06:22:40.438Z,7.20
2023-03-14T06:25:10.284Z,7.20
2023-03-14T06:27:37.135Z,7.20
2023-03-14T06:30:05.249Z,7.20
2023-03-14T06:32:32.191Z,7.20
2023-03-14T06:35:01.783Z,7.30
2023-03-14T06:37:29.877Z,7.30
2023-03-14T06:39:57.088Z,7.40
2023-03-14T06:42:24.069Z,7.40
2023-03-14T06:44:50.950Z,7.50
2023-03-14T06:47:18.123Z,7.50
2023-03-14T06:49:45.015Z,7.60
2023-03-14T06:52:11.944Z,7.60
2023-03-14T06:54:38.863Z,7.70
2023-03-14T06:57:05.726Z,7.80
2023-03-14T06:59:32.599Z,7.80
2023-03-14T07:01:59.523Z,7.90
2023-03-14T07:04:26.452Z,8.00
2023-03-14T07:06:53.373Z,8.10
2023-03-14T07:09:20.664Z,8.20
2023-03-14T07:11:47.561Z,8.30
2023-03-14T07:14:14.451Z,8.40
2023-03-14T07:16:41.403Z,8.50
2023-03-14T07:19:08.387Z,8.60
2023-03-14T07:21:35.744Z,8.80
2023-03-14T07:24:02.829Z,9.00
2023-03-14T07:26:29.746Z,9.10
2023-03-14T07:28:56.761Z,9.20
2023-03-14T07:31:24.257Z,9.30
2023-03-14T07:33:51.226Z,9.40
2023-03-14T07:36:18.336Z,9.40
2023-03-14T07:38:45.219Z,9.40
2023-03-14T07:41:12.130Z,9.40
2023-03-14T07:43:38.992Z,9.40
2023-03-14T07:46:06.685Z,9.40
2023-03-14T07:48:34.095Z,9.30
2023-03-14T07:51:00.966Z,9.20
2023-03-14T07:53:27.822Z,9.10
2023-03-14T07:55:55.893Z,9.10
2023-03-14T07:58:23.556Z,9.10
2023-03-14T08:00:51.863Z,9.10
2023-03-14T08:03:19.650Z,9.20
2023-03-14T08:05:51.736Z,9.20
2023-03-14T08:08:19.621Z,9.30
2023-03-14T08:10:47.278Z,9.30
2023-03-14T08:13:15.113Z,9.40
2023-03-14T08:15:42.504Z,9.40
2023-03-14T08:18:09.874Z,9.50
2023-03-14T08:20:37.914Z,9.60
2023-03-14T08:23:05.150Z,9.70
2023-03-14T08:25:32.608Z,9.90
2023-03-14T08:27:59.633Z,10.10
2023-03-14T08:30:27.083Z,10.20
2023-03-14T08:32:54.241Z,10.40
2023-03-14T08:35:21.459Z,10.40
2023-03-14T08:37:48.491Z,10.50
2023-03-14T08:40:17.821Z,10.60
2023-03-14T08:42:44.994Z,10.80
2023-03-14T08:45:17.979Z,10.80
2023-03-14T08:47:46.411Z,11.00
2023-03-14T08:50:16.460Z,11.30
2023-03-14T08:52:43.839Z,11.50
2023-03-14T08:55:11.289Z,11.60
2023-03-14T08:57:38.365Z,11.60
2023-03-14T09:00:12.454Z,11.80
2023-03-14T09:03:51.457Z,12.10
2023-03-14T09:06:18.958Z,12.60
2023-03-14T09:08:46.650Z,12.70
2023-03-14T09:11:15.126Z,12.60
2023-03-14T09:13:42.380Z,13.10
2023-03-14T09:16:10.155Z,13.20
2023-03-14T09:18:37.663Z,13.10
2023-03-14T09:21:05.083Z,13.20
2023-03-14T09:23:32.261Z,13.30
2023-03-14T09:26:01.532Z,14.40
2023-03-14T09:28:28.988Z,15.40
2023-03-14T09:30:56.034Z,14.90
2023-03-14T09:33:23.228Z,14.40
2023-03-14T09:35:50.891Z,14.80
2023-03-14T09:38:17.809Z,15.10
2023-03-14T09:40:44.726Z,14.80
2023-03-14T09:43:17.237Z,14.60
2023-03-14T09:45:49.430Z,14.60
2023-03-14T09:48:27.873Z,14.70
2023-03-14T09:51:00.203Z,15.00
2023-03-14T09:53:44.812Z,16.20
2023-03-14T09:56:28.681Z,16.60
2023-03-14T09:59:03.686Z,16.90
2023-03-14T10:01:36.463Z,17.60
2023-03-14T10:04:16.937Z,17.20
2023-03-14T10:06:44.048Z,15.80
2023-03-14T10:09:26.518Z,14.70
2023-03-14T10:12:02.346Z,14.40
2023-03-14T10:14:35.355Z,14.70
2023-03-14T10:17:15.217Z,14.20
2023-03-14T10:20:02.465Z,14.10
2023-03-14T10:22:33.182Z,13.60
2023-03-14T10:25:26.863Z,13.60
2023-03-14T10:27:53.813Z,13.60
2023-03-14T10:30:46.878Z,13.40
2023-03-14T10:33:24.747Z,13.10
2023-03-14T10:36:29.625Z,13.30
2023-03-14T10:39:49.183Z,13.60
2023-03-14T10:42:51.519Z,14.00
2023-03-14T10:45:44.131Z,14.00
2023-03-14T10:48:25.894Z,14.40
2023-03-14T10:51:10.477Z,15.50
2023-03-14T10:53:47.004Z,15.70
2023-03-14T10:56:25.141Z,15.70
2023-03-14T10:58:58.906Z,15.20
2023-03-14T11:01:59.816Z,14.70
2023-03-14T11:05:05.229Z,14.10
2023-03-14T11:07:41.743Z,13.30
2023-03-14T11:10:35.240Z,12.90
2023-03-14T11:14:16.826Z,12.90
2023-03-14T11:17:15.630Z,12.90
2023-03-14T11:20:43.206Z,12.90
2023-03-14T11:23:39.863Z,12.70
2023-03-14T11:26:51.980Z,12.60
2023-03-14T11:29:35.850Z,12.40
2023-03-14T11:32:24.961Z,12.40
2023-03-14T11:34:57.351Z,12.60
2023-03-14T11:37:52.937Z,12.60
2023-03-14T11:40:27.569Z,12.60
2023-03-14T11:43:18.274Z,12.70
2023-03-14T11:45:49.085Z,12.90
2023-03-14T11:48:38.402Z,13.20
2023-03-14T11:51:24.135Z,13.40
2023-03-14T11:54:28.401Z,14.50
2023-03-14T11:57:10.104Z,14.40
2023-03-14T12:00:13.491Z,14.10
2023-03-14T12:03:34.960Z,15.50
2023-03-14T12:06:32.399Z,17.60
2023-03-14T12:09:04.269Z,16.50
2023-03-14T12:12:00.498Z,17.70
2023-03-14T12:14:47.466Z,19.10
2023-03-14T12:17:26.050Z,18.30
2023-03-14T12:20:25.899Z,17.00
2023-03-14T12:23:12.945Z,17.20
2023-03-14T12:25:39.881Z,16.90
2023-03-14T12:28:31.622Z,17.60
2023-03-14T12:31:30.473Z,18.50
2023-03-14T12:34:10.180Z,20.80
2023-03-14T12:37:00.202Z,19.90
2023-03-14T12:40:02.295Z,18.80
2023-03-14T12:43:01.009Z,17.00
2023-03-14T12:45:37.322Z,15.90
2023-03-14T12:48:25.946Z,15.10
2023-03-14T12:51:03.460Z,14.40
2023-03-14T12:54:10.528Z,13.80
2023-03-14T12:57:04.286Z,13.60
2023-03-14T12:59:56.049Z,13.40
2023-03-14T13:02:30.772Z,13.20
2023-03-14T13:05:12.597Z,13.30
2023-03-14T13:07:48.263Z,13.30
2023-03-14T13:10:42.235Z,13.40
2023-03-14T13:13:26.894Z,13.30
2023-03-14T13:16:05.414Z,13.20
2023-03-14T13:18:40.125Z,12.90
2023-03-14T13:21:21.079Z,12.70
2023-03-14T13:24:06.936Z,12.10
2023-03-14T13:26:44.453Z,11.20
2023-03-14T13:29:28.161Z,10.60
2023-03-14T13:32:20.549Z,10.20
2023-03-14T13:34:49.551Z,9.80
2023-03-14T13:37:27.272Z,9.40
2023-03-14T13:39:58.470Z,9.20
2023-03-14T13:42:30.815Z,9.00
2023-03-14T13:44:58.592Z,8.90
2023-03-14T13:47:27.407Z,8.90
2023-03-14T13:49:55.278Z,8.90
2023-03-14T13:52:33.054Z,8.90
2023-03-14T13:55:04.686Z,8.70
2023-03-14T13:57:55.812Z,8.60
2023-03-14T14:00:28.848Z,8.50
2023-03-14T14:02:59.954Z,8.40
2023-03-14T14:05:32.285Z,8.30
2023-03-14T14:07:59.310Z,8.20
2023-03-14T14:10:31.299Z,8.10
2023-03-14T14:13:05.338Z,8.10
2023-03-14T14:15:47.330Z,8.10
2023-03-14T14:18:23.209Z,8.10
2023-03-14T14:20:51.452Z,8.10
2023-03-14T14:23:29.568Z,8.10
2023-03-14T14:25:59.689Z,8.10
2023-03-14T14:28:35.886Z,8.10
2023-03-14T14:31:25.941Z,8.20
2023-03-14T14:34:06.094Z,8.20
2023-03-14T14:36:46.230Z,8.10
2023-03-14T14:39:25.438Z,8.10
2023-03-14T14:41:54.378Z,8.20
2023-03-14T14:44:37.260Z,8.20
2023-03-14T14:47:05.789Z,8.00
2023-03-14T14:49:34.972Z,7.80
2023-03-14T14:52:13.672Z,7.60
2023-03-14T14:54:57.982Z,7.50
2023-03-14T14:57:35.380Z,7.50
2023-03-14T15:00:22.890Z,7.20
2023-03-14T15:02:55.984Z,7.10
2023-03-14T15:05:28.597Z,6.90
2023-03-14T15:07:55.537Z,6.70
2023-03-14T15:10:26.286Z,6.70
2023-03-14T15:12:53.791Z,6.50
2023-03-14T15:15:21.532Z,6.40
2023-03-14T15:17:48.591Z,6.40
2023-03-14T15:20:19.095Z,6.30
2023-03-14T15:22:47.776Z,6.30
2023-03-14T15:25:37.066Z,6.20
2023-03-14T15:28:01.828Z,6.10
2023-03-14T15:30:28.662Z,6.00
2023-03-14T15:32:55.538Z,5.90
2023-03-14T15:35:22.474Z,5.90
2023-03-14T15:37:50.292Z,5.90
2023-03-14T15:40:17.843Z,5.80
2023-03-14T15:42:45.254Z,5.90
2023-03-14T15:45:12.244Z,6.00
2023-03-14T15:47:39.510Z,6.10
2023-03-14T15:50:10.575Z,6.20
2023-03-14T15:52:37.956Z,6.40
2023-03-14T15:55:05.336Z,6.50
2023-03-14T15:57:32.164Z,6.60
2023-03-14T15:59:59.205Z,6.60
2023-03-14T16:02:26.082Z,6.70
2023-03-14T16:04:53.021Z,6.70
2023-03-14T16:07:19.904Z,6.70
2023-03-14T16:09:46.766Z,6.80
2023-03-14T16:12:13.640Z,6.80
2023-03-14T16:14:43.540Z,6.80
2023-03-14T16:17:11.579Z,6.80
2023-03-14T16:19:38.414Z,6.80
2023-03-14T16:22:05.426Z,6.80
2023-03-14T16:24:32.274Z,6.80
2023-03-14T16:26:59.147Z,6.90
2023-03-14T16:29:26.101Z,6.90
2023-03-14T16:31:53.056Z,6.90
2023-03-14T16:34:20.009Z,6.90
2023-03-14T16:36:48.000Z,6.90
2023-03-14T16:39:14.845Z,6.90
2023-03-14T16:41:42.136Z,6.90
2023-03-14T16:44:09.064Z,6.80
2023-03-14T16:46:36.369Z,6.80
2023-03-14T16:49:05.132Z,6.80
2023-03-14T16:51:32.593Z,6.70
2023-03-14T16:53:59.473Z,6.70
2023-03-14T16:56:26.328Z,6.70
2023-03-14T16:58:53.221Z,6.70
2023-03-14T17:01:20.907Z,6.70
2023-03-14T17:03:51.765Z,6.60
2023-03-14T17:06:25.326Z,6.60
2023-03-14T17:08:55.917Z,6.60
2023-03-14T17:11:25.073Z,6.60
2023-03-14T17:13:51.996Z,6.60
2023-03-14T17:16:19.457Z,6.50
2023-03-14T17:18:46.712Z,6.50
2023-03-14T17:21:13.934Z,6.50
2023-03-14T17:23:41.219Z,6.50
2023-03-14T17:26:08.370Z,6.40
2023-03-14T17:28:35.950Z,6.40
2023-03-14T17:31:12.682Z,6.40
2023-03-14T17:33:39.608Z,6.30
2023-03-14T17:36:07.646Z,6.30
2023-03-14T17:38:36.553Z,6.20
2023-03-14T17:41:07.516Z,6.20
2023-03-14T17:43:34.398Z,6.10
2023-03-14T17:46:08.778Z,6.10
2023-03-14T17:48:35.793Z,6.10
2023-03-14T17:51:02.666Z,5.90
2023-03-14T17:53:29.868Z,5.80
2023-03-14T17:55:57.802Z,5.80
2023-03-14T17:58:25.333Z,5.80
2023-03-14T18:00:52.189Z,5.80
2023-03-14T18:03:19.079Z,5.90
2023-03-14T18:05:46.101Z,6.00
2023-03-14T18:08:15.397Z,6.00
2023-03-14T18:10:42.790Z,6.10
2023-03-14T18:13:09.769Z,6.10
2023-03-14T18:15:36.635Z,6.00
2023-03-14T18:18:03.562Z,6.00
2023-03-14T18:20:30.889Z,6.10
2023-03-14T18:22:58.522Z,5.90
2023-03-14T18:25:25.395Z,5.80
2023-03-14T18:27:52.296Z,5.70
2023-03-14T18:30:20.326Z,5.70
2023-03-14T18:32:47.296Z,5.90
2023-03-14T18:35:14.352Z,5.90
2023-03-14T18:37:41.217Z,6.00
2023-03-14T18:40:13.489Z,6.00
2023-03-14T18:42:40.675Z,6.00
2023-03-14T18:45:08.317Z,6.00
2023-03-14T18:47:36.654Z,6.00
2023-03-14T18:50:09.636Z,6.00
2023-03-14T18:52:36.497Z,5.90
2023-03-14T18:55:04.321Z,5.90
2023-03-14T18:57:31.329Z,5.90
2023-03-14T18:59:58.366Z,5.90
2023-03-14T19:02:26.360Z,5.90
2023-03-14T19:04:53.875Z,5.80
2023-03-14T19:07:23.437Z,5.80
2023-03-14T19:09:50.650Z,5.70
2023-03-14T19:12:18.720Z,5.70
2023-03-14T19:14:45.736Z,5.60
2023-03-14T19:17:12.649Z,5.60
2023-03-14T19:19:39.590Z,5.60
2023-03-14T19:22:06.448Z,5.60
2023-03-14T19:24:34.852Z,5.50
2023-03-14T19:27:01.741Z,5.50
2023-03-14T19:29:28.721Z,5.60
2023-03-14T19:31:55.958Z,5.60
2023-03-14T19:34:23.216Z,5.60
2023-03-14T19:36:50.635Z,5.60
2023-03-14T19:39:17.526Z,5.50
2023-03-14T19:41:44.414Z,5.50
2023-03-14T19:44:13.026Z,5.50
2023-03-14T19:46:39.873Z,5.50
2023-03-14T19:49:06.766Z,5.60
2023-03-14T19:51:35.449Z,5.60
2023-03-14T19:54:04.729Z,5.50
2023-03-14T19:56:33.128Z,5.50
2023-03-14T19:59:04.534Z,5.40
2023-03-14T20:01:32.521Z,5.20
2023-03-14T20:03:59.419Z,5.00
2023-03-14T20:06:26.283Z,5.00
2023-03-14T20:08:53.172Z,4.90
2023-03-14T20:11:20.082Z,4.90
2023-03-14T20:13:47.259Z,4.80
2023-03-14T20:16:14.259Z,4.80
2023-03-14T20:18:41.750Z,4.80
2023-03-14T20:21:15.367Z,4.70
2023-03-14T20:23:44.027Z,4.70
2023-03-14T20:26:11.485Z,4.70
2023-03-14T20:28:38.321Z,4.60
2023-03-14T20:31:07.749Z,4.60
2023-03-14T20:33:34.759Z,4.60
2023-03-14T20:36:02.651Z,4.50
2023-03-14T20:38:31.010Z,4.50
2023-03-14T20:41:00.157Z,4.50
2023-03-14T20:43:29.750Z,4.50
2023-03-14T20:46:00.951Z,4.50
2023-03-14T20:48:30.863Z,4.50
2023-03-14T20:50:58.543Z,4.50
2023-03-14T20:53:25.771Z,4.50
2023-03-14T20:55:57.219Z,4.50
2023-03-14T20:58:25.254Z,4.50
2023-03-14T21:00:55.366Z,4.50
2023-03-14T21:03:24.543Z,4.50
2023-03-14T21:05:52.826Z,4.50
2023-03-14T21:08:24.376Z,4.50
2023-03-14T21:10:55.083Z,4.50
2023-03-14T21:13:23.693Z,4.50
2023-03-14T21:15:50.789Z,4.50
2023-03-14T21:18:17.928Z,4.50
2023-03-14T21:20:45.174Z,4.50
2023-03-14T21:23:12.729Z,4.50
2023-03-14T21:25:43.131Z,4.50
2023-03-14T21:28:12.475Z,4.40
2023-03-14T21:30:39.966Z,4.40
2023-03-14T21:33:06.978Z,4.50
2023-03-14T21:35:34.010Z,4.50
2023-03-14T21:38:00.919Z,4.50
2023-03-14T21:40:27.893Z,4.50
2023-03-14T21:42:55.307Z,4.50
2023-03-14T21:45:28.286Z,4.50
2023-03-14T21:47:58.438Z,4.50
2023-03-14T21:50:26.752Z,4.50
2023-03-14T21:52:59.474Z,4.50
2023-03-14T21:55:26.738Z,4.40
2023-03-14T21:57:55.807Z,4.30
2023-03-14T22:00:26.047Z,4.10
2023-03-14T22:03:11.741Z,3.60
2023-03-14T22:05:44.510Z,3.10
2023-03-14T22:08:14.238Z,2.60
2023-03-14T22:10:51.026Z,2.10
2023-03-14T22:13:20.746Z,1.90
2023-03-14T22:15:49.770Z,1.70
2023-03-14T22:18:18.475Z,1.50
2023-03-14T22:20:45.920Z,1.30
2023-03-14T22:23:13.855Z,1.20
2023-03-14T22:25:50.903Z,1.20
2023-03-14T22:28:19.189Z,1.20
2023-03-14T22:30:49.262Z,1.20
2023-03-14T22:33:18.411Z,1.30
2023-03-14T22:35:51.252Z,1.30
2023-03-14T22:38:18.919Z,1.40
2023-03-14T22:40:46.973Z,1.40
2023-03-14T22:43:13.978Z,1.50
2023-03-14T22:45:40.960Z,1.50
2023-03-14T22:48:08.007Z,1.60
2023-03-14T22:50:37.806Z,1.60
2023-03-14T22:53:04.657Z,1.60
2023-03-14T22:55:31.631Z,1.60
2023-03-14T22:57:58.913Z,1.70
2023-03-14T23:00:27.098Z,1.60
2023-03-14T23:02:54.204Z,1.70
2023-03-14T23:05:21.706Z,1.70
2023-03-14T23:07:48.660Z,1.70
2023-03-14T23:10:15.921Z,1.80
2023-03-14T23:12:45.067Z,1.80
2023-03-14T23:15:16.044Z,1.80
2023-03-14T23:17:44.307Z,1.70
2023-03-14T23:20:12.953Z,1.70
2023-03-14T23:22:39.923Z,1.60
2023-03-14T23:25:08.355Z,1.70
2023-03-14T23:27:35.965Z,1.70
2023-03-14T23:30:04.840Z,1.70
2023-03-14T23:32:32.093Z,1.60
2023-03-14T23:34:58.992Z,1.70
2023-03-14T23:37:25.969Z,1.70
2023-03-14T23:39:53.035Z,1.60
2023-03-14T23:42:20.210Z,1.60
2023-03-14T23:44:47.134Z,1.50
2023-03-14T23:47:14.271Z,1.50
2023-03-14T23:49:41.643Z,1.50
2023-03-14T23:52:09.131Z,1.50
2023-03-14T23:54:36.282Z,1.50
2023-03-14T23:57:05.311Z,1.60
2023-03-14T23:59:34.143Z,1.60
